This is the latest recevied weather packets stored in our database for station/object SP6PGH-13. If no packets are shown the sender has not sent any weather packets the latest 10 day(s).
| Time | Temp. | Humidity | Pressure | Rain* | Wind** | Luminosity | Snow |
|---|---|---|---|---|---|---|---|
| 1777206005 | 13.89° C | 28% | 1008.8 hPa | - | - | 662 W/m² | - |
| 1777205104 | 13.89° C | 28% | 1008.8 hPa | - | - | 705 W/m² | - |
| 1777204203 | 13.89° C | 26% | 1008.8 hPa | - | - | 700 W/m² | - |
| 1777203302 | 13.33° C | 31% | 1008.8 hPa | - | - | 771 W/m² | - |
| 1777202401 | 12.78° C | 31% | 1008.6 hPa | - | - | 720 W/m² | - |
| 1777201500 | 12.78° C | 32% | 1008.6 hPa | - | - | 803 W/m² | - |
| 1777200599 | 12.78° C | 32% | 1008.5 hPa | - | - | 265 W/m² | - |
| 1777199698 | 11.67° C | 32% | 1008.4 hPa | - | - | 712 W/m² | - |
| 1777198797 | 12.22° C | 30% | 1008.1 hPa | - | - | 772 W/m² | - |
| 1777197896 | 10.56° C | 41% | 1008.1 hPa | - | - | 833 W/m² | - |
| 1777196995 | 11.11° C | 41% | 1008.1 hPa | - | - | 254 W/m² | - |
| 1777196094 | 12.78° C | 40% | 1008 hPa | - | - | 632 W/m² | - |
| 1777195192 | 11.11° C | 42% | 1007.9 hPa | - | - | 746 W/m² | - |
| 1777194291 | 10.56° C | 44% | 1007.8 hPa | - | - | 790 W/m² | - |
| 1777193390 | 10.56° C | 45% | 1007.6 hPa | - | - | 423 W/m² | - |
| 1777192489 | 11.11° C | 46% | 1007.4 hPa | - | - | 645 W/m² | - |
| 1777191588 | 10.56° C | 46% | 1007.3 hPa | - | - | 559 W/m² | - |
| 1777190687 | 10.56° C | 48% | 1007.2 hPa | - | - | 514 W/m² | - |
| 1777189786 | 10° C | 53% | 1007.2 hPa | - | - | 477 W/m² | - |
| 1777188885 | 9.44° C | 60% | 1007.1 hPa | - | - | 434 W/m² | - |
| 1777187983 | 8.33° C | 64% | 1006.8 hPa | - | - | 424 W/m² | - |
| 1777187082 | 7.78° C | 62% | 1006.7 hPa | - | - | 143 W/m² | - |
| 1777186181 | 7.22° C | 66% | 1006.5 hPa | - | - | 126 W/m² | - |
| 1777185280 | 8.33° C | 63% | 1006.2 hPa | - | - | 137 W/m² | - |
| 1777184379 | 7.78° C | 65% | 1006.1 hPa | - | - | 166 W/m² | - |
* Rain since midnight (hover to see other rain measurements)
** Current wind speed in m/s (hover to see current wind gust speed)